sensor_id;sensor_type;location;lat;lon;timestamp;P1;durP1;ratioP1;P2;durP2;ratioP2
16254;SDS011;8235;52.198;9.904;2023-02-18T00:02:10;3.27;;;0.90;;
16254;SDS011;8235;52.198;9.904;2023-02-18T00:04:37;4.67;;;0.90;;
16254;SDS011;8235;52.198;9.904;2023-02-18T00:07:04;5.37;;;0.93;;
16254;SDS011;8235;52.198;9.904;2023-02-18T00:09:30;3.40;;;1.73;;
16254;SDS011;8235;52.198;9.904;2023-02-18T00:11:57;4.97;;;0.77;;
16254;SDS011;8235;52.198;9.904;2023-02-18T00:14:25;5.23;;;0.90;;
16254;SDS011;8235;52.198;9.904;2023-02-18T00:16:51;5.00;;;1.20;;
16254;SDS011;8235;52.198;9.904;2023-02-18T00:19:18;2.70;;;0.80;;
16254;SDS011;8235;52.198;9.904;2023-02-18T00:21:47;5.00;;;1.60;;
16254;SDS011;8235;52.198;9.904;2023-02-18T00:24:14;3.40;;;0.90;;
16254;SDS011;8235;52.198;9.904;2023-02-18T00:26:41;4.90;;;1.00;;
16254;SDS011;8235;52.198;9.904;2023-02-18T00:29:08;4.50;;;0.97;;
16254;SDS011;8235;52.198;9.904;2023-02-18T00:31:36;4.23;;;1.07;;
16254;SDS011;8235;52.198;9.904;2023-02-18T00:34:03;3.93;;;0.90;;
16254;SDS011;8235;52.198;9.904;2023-02-18T00:36:30;2.70;;;0.67;;
16254;SDS011;8235;52.198;9.904;2023-02-18T00:38:57;7.20;;;1.03;;
16254;SDS011;8235;52.198;9.904;2023-02-18T00:41:26;4.40;;;0.97;;
16254;SDS011;8235;52.198;9.904;2023-02-18T00:43:54;6.90;;;0.93;;
16254;SDS011;8235;52.198;9.904;2023-02-18T00:46:21;4.30;;;0.87;;
16254;SDS011;8235;52.198;9.904;2023-02-18T00:48:50;6.20;;;1.20;;
16254;SDS011;8235;52.198;9.904;2023-02-18T00:51:16;8.40;;;2.20;;
16254;SDS011;8235;52.198;9.904;2023-02-18T00:53:43;5.33;;;1.60;;
16254;SDS011;8235;52.198;9.904;2023-02-18T00:56:10;3.03;;;1.20;;
16254;SDS011;8235;52.198;9.904;2023-02-18T00:58:36;4.17;;;1.07;;
16254;SDS011;8235;52.198;9.904;2023-02-18T01:01:03;4.23;;;1.07;;
16254;SDS011;8235;52.198;9.904;2023-02-18T01:03:30;5.07;;;1.10;;
16254;SDS011;8235;52.198;9.904;2023-02-18T01:05:59;2.77;;;0.93;;
16254;SDS011;8235;52.198;9.904;2023-02-18T01:08:25;4.57;;;0.90;;
16254;SDS011;8235;52.198;9.904;2023-02-18T01:10:53;3.97;;;0.97;;
16254;SDS011;8235;52.198;9.904;2023-02-18T01:13:22;3.43;;;1.10;;
16254;SDS011;8235;52.198;9.904;2023-02-18T01:15:49;4.43;;;1.23;;
16254;SDS011;8235;52.198;9.904;2023-02-18T01:18:15;6.17;;;1.20;;
16254;SDS011;8235;52.198;9.904;2023-02-18T01:20:42;5.40;;;1.20;;
16254;SDS011;8235;52.198;9.904;2023-02-18T01:23:11;4.70;;;0.80;;
16254;SDS011;8235;52.198;9.904;2023-02-18T01:25:39;5.17;;;1.33;;
16254;SDS011;8235;52.198;9.904;2023-02-18T01:28:06;6.60;;;1.20;;
16254;SDS011;8235;52.198;9.904;2023-02-18T01:30:33;4.53;;;0.87;;
16254;SDS011;8235;52.198;9.904;2023-02-18T01:32:59;4.17;;;1.20;;
16254;SDS011;8235;52.198;9.904;2023-02-18T01:35:26;6.03;;;0.73;;
16254;SDS011;8235;52.198;9.904;2023-02-18T01:37:52;2.70;;;1.07;;
16254;SDS011;8235;52.198;9.904;2023-02-18T01:40:22;6.47;;;1.57;;
16254;SDS011;8235;52.198;9.904;2023-02-18T01:42:50;3.83;;;0.80;;
16254;SDS011;8235;52.198;9.904;2023-02-18T01:45:34;3.83;;;1.33;;
16254;SDS011;8235;52.198;9.904;2023-02-18T01:48:25;7.33;;;1.67;;
16254;SDS011;8235;52.198;9.904;2023-02-18T01:50:56;7.90;;;1.53;;
16254;SDS011;8235;52.198;9.904;2023-02-18T01:53:27;6.33;;;1.37;;
16254;SDS011;8235;52.198;9.904;2023-02-18T01:56:00;3.80;;;1.00;;
16254;SDS011;8235;52.198;9.904;2023-02-18T01:58:29;6.77;;;1.33;;
16254;SDS011;8235;52.198;9.904;2023-02-18T02:00:57;5.20;;;1.00;;
16254;SDS011;8235;52.198;9.904;2023-02-18T02:03:23;4.23;;;1.00;;
16254;SDS011;8235;52.198;9.904;2023-02-18T02:05:50;5.17;;;0.87;;
16254;SDS011;8235;52.198;9.904;2023-02-18T02:08:16;5.57;;;1.20;;
16254;SDS011;8235;52.198;9.904;2023-02-18T02:10:48;6.10;;;1.53;;
16254;SDS011;8235;52.198;9.904;2023-02-18T02:13:31;5.67;;;1.30;;
16254;SDS011;8235;52.198;9.904;2023-02-18T02:16:10;6.03;;;1.20;;
16254;SDS011;8235;52.198;9.904;2023-02-18T02:18:49;3.33;;;1.00;;
16254;SDS011;8235;52.198;9.904;2023-02-18T02:24:47;5.37;;;1.30;;
16254;SDS011;8235;52.198;9.904;2023-02-18T02:27:28;5.27;;;1.53;;
16254;SDS011;8235;52.198;9.904;2023-02-18T02:30:22;6.53;;;1.90;;
16254;SDS011;8235;52.198;9.904;2023-02-18T02:35:57;3.73;;;1.80;;
16254;SDS011;8235;52.198;9.904;2023-02-18T02:38:30;8.27;;;2.10;;
16254;SDS011;8235;52.198;9.904;2023-02-18T02:41:06;4.70;;;1.80;;
16254;SDS011;8235;52.198;9.904;2023-02-18T02:43:43;6.07;;;1.93;;
16254;SDS011;8235;52.198;9.904;2023-02-18T02:46:18;7.57;;;2.10;;
16254;SDS011;8235;52.198;9.904;2023-02-18T02:48:51;9.40;;;2.50;;
16254;SDS011;8235;52.198;9.904;2023-02-18T02:51:26;10.53;;;2.83;;
16254;SDS011;8235;52.198;9.904;2023-02-18T02:54:07;11.37;;;4.07;;
16254;SDS011;8235;52.198;9.904;2023-02-18T02:56:36;8.83;;;2.70;;
16254;SDS011;8235;52.198;9.904;2023-02-18T02:59:03;10.00;;;4.07;;
16254;SDS011;8235;52.198;9.904;2023-02-18T03:01:35;8.40;;;3.10;;
16254;SDS011;8235;52.198;9.904;2023-02-18T03:04:15;9.37;;;3.30;;
16254;SDS011;8235;52.198;9.904;2023-02-18T03:07:02;10.07;;;3.90;;
16254;SDS011;8235;52.198;9.904;2023-02-18T03:09:44;12.63;;;4.23;;
16254;SDS011;8235;52.198;9.904;2023-02-18T03:12:23;11.57;;;4.33;;
16254;SDS011;8235;52.198;9.904;2023-02-18T03:14:55;7.80;;;4.57;;
16254;SDS011;8235;52.198;9.904;2023-02-18T03:17:29;10.63;;;4.50;;
16254;SDS011;8235;52.198;9.904;2023-02-18T03:20:02;11.33;;;4.73;;
16254;SDS011;8235;52.198;9.904;2023-02-18T03:22:36;10.93;;;4.87;;
16254;SDS011;8235;52.198;9.904;2023-02-18T03:25:06;12.50;;;5.07;;
16254;SDS011;8235;52.198;9.904;2023-02-18T03:27:35;11.47;;;6.10;;
16254;SDS011;8235;52.198;9.904;2023-02-18T03:30:07;15.77;;;6.10;;
16254;SDS011;8235;52.198;9.904;2023-02-18T03:32:38;11.80;;;5.93;;
16254;SDS011;8235;52.198;9.904;2023-02-18T03:35:12;14.20;;;6.07;;
16254;SDS011;8235;52.198;9.904;2023-02-18T03:37:42;14.80;;;6.43;;
16254;SDS011;8235;52.198;9.904;2023-02-18T03:40:12;13.70;;;6.43;;
16254;SDS011;8235;52.198;9.904;2023-02-18T03:42:42;15.80;;;7.50;;
16254;SDS011;8235;52.198;9.904;2023-02-18T03:45:08;10.50;;;6.87;;
16254;SDS011;8235;52.198;9.904;2023-02-18T03:47:35;21.10;;;7.10;;
16254;SDS011;8235;52.198;9.904;2023-02-18T03:50:02;14.17;;;6.20;;
16254;SDS011;8235;52.198;9.904;2023-02-18T03:52:29;13.13;;;5.70;;
16254;SDS011;8235;52.198;9.904;2023-02-18T03:54:56;13.70;;;5.80;;
16254;SDS011;8235;52.198;9.904;2023-02-18T03:57:23;13.87;;;5.57;;
16254;SDS011;8235;52.198;9.904;2023-02-18T03:59:49;10.67;;;5.47;;
16254;SDS011;8235;52.198;9.904;2023-02-18T04:02:16;11.13;;;5.30;;
16254;SDS011;8235;52.198;9.904;2023-02-18T04:04:42;12.93;;;6.17;;
16254;SDS011;8235;52.198;9.904;2023-02-18T04:07:09;14.10;;;6.20;;
16254;SDS011;8235;52.198;9.904;2023-02-18T04:09:35;14.77;;;6.43;;
16254;SDS011;8235;52.198;9.904;2023-02-18T04:12:03;14.40;;;6.47;;
16254;SDS011;8235;52.198;9.904;2023-02-18T04:14:30;11.43;;;6.23;;
16254;SDS011;8235;52.198;9.904;2023-02-18T04:16:56;16.80;;;6.90;;
16254;SDS011;8235;52.198;9.904;2023-02-18T04:19:23;13.63;;;6.87;;
16254;SDS011;8235;52.198;9.904;2023-02-18T04:21:49;15.77;;;7.20;;
16254;SDS011;8235;52.198;9.904;2023-02-18T04:24:16;15.90;;;7.70;;
16254;SDS011;8235;52.198;9.904;2023-02-18T04:26:42;15.50;;;8.10;;
16254;SDS011;8235;52.198;9.904;2023-02-18T04:29:10;21.27;;;10.47;;
16254;SDS011;8235;52.198;9.904;2023-02-18T04:31:36;21.63;;;9.70;;
16254;SDS011;8235;52.198;9.904;2023-02-18T04:34:03;25.63;;;10.97;;
16254;SDS011;8235;52.198;9.904;2023-02-18T04:36:29;19.87;;;11.17;;
16254;SDS011;8235;52.198;9.904;2023-02-18T04:38:56;24.33;;;12.23;;
16254;SDS011;8235;52.198;9.904;2023-02-18T04:41:23;22.30;;;11.07;;
16254;SDS011;8235;52.198;9.904;2023-02-18T04:43:49;19.70;;;10.43;;
16254;SDS011;8235;52.198;9.904;2023-02-18T04:46:17;20.53;;;11.07;;
16254;SDS011;8235;52.198;9.904;2023-02-18T04:48:44;19.60;;;11.30;;
16254;SDS011;8235;52.198;9.904;2023-02-18T04:51:10;20.53;;;10.37;;
16254;SDS011;8235;52.198;9.904;2023-02-18T04:53:36;21.07;;;11.83;;
16254;SDS011;8235;52.198;9.904;2023-02-18T04:56:03;22.13;;;12.03;;
16254;SDS011;8235;52.198;9.904;2023-02-18T04:58:30;21.17;;;11.13;;
16254;SDS011;8235;52.198;9.904;2023-02-18T05:00:57;23.97;;;12.00;;
16254;SDS011;8235;52.198;9.904;2023-02-18T05:03:26;24.23;;;11.30;;
16254;SDS011;8235;52.198;9.904;2023-02-18T05:05:52;19.23;;;11.13;;
16254;SDS011;8235;52.198;9.904;2023-02-18T05:08:19;23.90;;;12.17;;
16254;SDS011;8235;52.198;9.904;2023-02-18T05:10:45;22.87;;;12.23;;
16254;SDS011;8235;52.198;9.904;2023-02-18T05:13:12;23.70;;;12.13;;
16254;SDS011;8235;52.198;9.904;2023-02-18T05:15:38;30.50;;;17.13;;
16254;SDS011;8235;52.198;9.904;2023-02-18T05:18:05;27.13;;;13.80;;
16254;SDS011;8235;52.198;9.904;2023-02-18T05:20:33;31.90;;;14.47;;
16254;SDS011;8235;52.198;9.904;2023-02-18T05:23:00;28.73;;;14.93;;
16254;SDS011;8235;52.198;9.904;2023-02-18T05:25:26;31.10;;;16.27;;
16254;SDS011;8235;52.198;9.904;2023-02-18T05:27:53;34.20;;;16.60;;
16254;SDS011;8235;52.198;9.904;2023-02-18T05:30:19;30.03;;;16.90;;
16254;SDS011;8235;52.198;9.904;2023-02-18T05:32:46;33.20;;;16.70;;
16254;SDS011;8235;52.198;9.904;2023-02-18T05:35:12;34.70;;;17.33;;
16254;SDS011;8235;52.198;9.904;2023-02-18T05:37:40;31.03;;;17.00;;
16254;SDS011;8235;52.198;9.904;2023-02-18T05:40:07;36.90;;;17.20;;
16254;SDS011;8235;52.198;9.904;2023-02-18T05:42:34;36.17;;;17.37;;
16254;SDS011;8235;52.198;9.904;2023-02-18T05:45:00;38.00;;;17.90;;
16254;SDS011;8235;52.198;9.904;2023-02-18T05:47:27;32.60;;;17.87;;
16254;SDS011;8235;52.198;9.904;2023-02-18T05:49:53;47.60;;;20.07;;
16254;SDS011;8235;52.198;9.904;2023-02-18T05:52:20;35.00;;;17.67;;
16254;SDS011;8235;52.198;9.904;2023-02-18T05:54:48;37.27;;;18.47;;
16254;SDS011;8235;52.198;9.904;2023-02-18T05:57:15;36.27;;;18.37;;
16254;SDS011;8235;52.198;9.904;2023-02-18T05:59:41;31.13;;;16.77;;
16254;SDS011;8235;52.198;9.904;2023-02-18T06:02:08;37.37;;;16.80;;
16254;SDS011;8235;52.198;9.904;2023-02-18T06:04:34;33.37;;;16.90;;
16254;SDS011;8235;52.198;9.904;2023-02-18T06:07:01;32.97;;;16.73;;
16254;SDS011;8235;52.198;9.904;2023-02-18T06:09:27;30.40;;;16.20;;
16254;SDS011;8235;52.198;9.904;2023-02-18T06:11:55;25.13;;;15.00;;
16254;SDS011;8235;52.198;9.904;2023-02-18T06:14:21;27.83;;;14.80;;
16254;SDS011;8235;52.198;9.904;2023-02-18T06:16:48;28.57;;;15.00;;
16254;SDS011;8235;52.198;9.904;2023-02-18T06:19:14;25.50;;;15.20;;
16254;SDS011;8235;52.198;9.904;2023-02-18T06:21:41;28.50;;;14.40;;
16254;SDS011;8235;52.198;9.904;2023-02-18T06:24:07;24.67;;;13.23;;
16254;SDS011;8235;52.198;9.904;2023-02-18T06:26:34;29.27;;;14.17;;
16254;SDS011;8235;52.198;9.904;2023-02-18T06:29:02;25.07;;;12.37;;
16254;SDS011;8235;52.198;9.904;2023-02-18T06:31:29;23.97;;;13.23;;
16254;SDS011;8235;52.198;9.904;2023-02-18T06:33:55;23.40;;;11.97;;
16254;SDS011;8235;52.198;9.904;2023-02-18T06:36:22;20.10;;;12.63;;
16254;SDS011;8235;52.198;9.904;2023-02-18T06:38:48;20.97;;;12.20;;
16254;SDS011;8235;52.198;9.904;2023-02-18T06:41:15;20.10;;;12.07;;
16254;SDS011;8235;52.198;9.904;2023-02-18T06:43:42;16.33;;;10.10;;
16254;SDS011;8235;52.198;9.904;2023-02-18T06:46:10;17.37;;;11.77;;
16254;SDS011;8235;52.198;9.904;2023-02-18T06:48:37;15.53;;;9.40;;
16254;SDS011;8235;52.198;9.904;2023-02-18T06:51:04;18.03;;;10.67;;
16254;SDS011;8235;52.198;9.904;2023-02-18T06:53:31;16.73;;;9.67;;
16254;SDS011;8235;52.198;9.904;2023-02-18T06:55:57;17.97;;;10.27;;
16254;SDS011;8235;52.198;9.904;2023-02-18T06:58:23;18.37;;;10.23;;
16254;SDS011;8235;52.198;9.904;2023-02-18T07:00:50;17.67;;;10.80;;
16254;SDS011;8235;52.198;9.904;2023-02-18T07:03:18;15.27;;;10.40;;
16254;SDS011;8235;52.198;9.904;2023-02-18T07:05:44;16.47;;;10.10;;
16254;SDS011;8235;52.198;9.904;2023-02-18T07:08:11;17.33;;;10.13;;
16254;SDS011;8235;52.198;9.904;2023-02-18T07:10:38;18.77;;;9.17;;
16254;SDS011;8235;52.198;9.904;2023-02-18T07:13:04;14.77;;;10.07;;
16254;SDS011;8235;52.198;9.904;2023-02-18T07:15:31;13.97;;;8.87;;
16254;SDS011;8235;52.198;9.904;2023-02-18T07:17:57;11.73;;;7.73;;
16254;SDS011;8235;52.198;9.904;2023-02-18T07:20:26;12.10;;;7.53;;
16254;SDS011;8235;52.198;9.904;2023-02-18T07:22:53;11.93;;;7.50;;
16254;SDS011;8235;52.198;9.904;2023-02-18T07:25:19;15.37;;;9.97;;
16254;SDS011;8235;52.198;9.904;2023-02-18T07:27:46;9.40;;;6.13;;
16254;SDS011;8235;52.198;9.904;2023-02-18T07:30:13;12.83;;;6.80;;
16254;SDS011;8235;52.198;9.904;2023-02-18T07:32:40;9.37;;;6.17;;
16254;SDS011;8235;52.198;9.904;2023-02-18T07:35:07;11.87;;;6.53;;
16254;SDS011;8235;52.198;9.904;2023-02-18T07:37:35;13.13;;;6.63;;
16254;SDS011;8235;52.198;9.904;2023-02-18T07:40:01;11.63;;;6.63;;
16254;SDS011;8235;52.198;9.904;2023-02-18T07:42:28;11.47;;;6.50;;
16254;SDS011;8235;52.198;9.904;2023-02-18T07:44:55;9.07;;;5.60;;
16254;SDS011;8235;52.198;9.904;2023-02-18T07:47:21;10.50;;;6.40;;
16254;SDS011;8235;52.198;9.904;2023-02-18T07:49:48;11.30;;;5.67;;
16254;SDS011;8235;52.198;9.904;2023-02-18T07:52:14;10.20;;;5.77;;
16254;SDS011;8235;52.198;9.904;2023-02-18T07:54:42;7.93;;;4.83;;
16254;SDS011;8235;52.198;9.904;2023-02-18T07:57:09;8.17;;;4.43;;
16254;SDS011;8235;52.198;9.904;2023-02-18T07:59:35;6.67;;;3.83;;
16254;SDS011;8235;52.198;9.904;2023-02-18T08:02:02;6.47;;;3.50;;
16254;SDS011;8235;52.198;9.904;2023-02-18T08:04:29;6.20;;;3.40;;
16254;SDS011;8235;52.198;9.904;2023-02-18T08:06:56;4.30;;;2.67;;
16254;SDS011;8235;52.198;9.904;2023-02-18T08:09:22;5.97;;;3.17;;
16254;SDS011;8235;52.198;9.904;2023-02-18T08:11:50;2.90;;;2.00;;
16254;SDS011;8235;52.198;9.904;2023-02-18T08:14:16;4.93;;;2.33;;
16254;SDS011;8235;52.198;9.904;2023-02-18T08:16:43;3.00;;;1.63;;
16254;SDS011;8235;52.198;9.904;2023-02-18T08:19:09;2.17;;;1.47;;
16254;SDS011;8235;52.198;9.904;2023-02-18T08:21:36;1.80;;;1.27;;
16254;SDS011;8235;52.198;9.904;2023-02-18T08:24:03;1.57;;;0.90;;
16254;SDS011;8235;52.198;9.904;2023-02-18T08:26:29;1.37;;;1.00;;
16254;SDS011;8235;52.198;9.904;2023-02-18T08:28:57;1.00;;;0.90;;
16254;SDS011;8235;52.198;9.904;2023-02-18T08:31:25;2.60;;;1.10;;
16254;SDS011;8235;52.198;9.904;2023-02-18T08:33:53;1.10;;;0.70;;
16254;SDS011;8235;52.198;9.904;2023-02-18T08:36:20;1.70;;;1.13;;
16254;SDS011;8235;52.198;9.904;2023-02-18T08:38:47;0.70;;;0.60;;
16254;SDS011;8235;52.198;9.904;2023-02-18T08:41:14;2.07;;;0.63;;
16254;SDS011;8235;52.198;9.904;2023-02-18T08:43:42;1.77;;;0.83;;
16254;SDS011;8235;52.198;9.904;2023-02-18T08:46:11;1.10;;;0.77;;
16254;SDS011;8235;52.198;9.904;2023-02-18T08:48:37;0.90;;;0.60;;
16254;SDS011;8235;52.198;9.904;2023-02-18T08:51:11;0.50;;;0.50;;
16254;SDS011;8235;52.198;9.904;2023-02-18T08:53:38;0.90;;;0.50;;
16254;SDS011;8235;52.198;9.904;2023-02-18T08:56:05;1.43;;;0.60;;
16254;SDS011;8235;52.198;9.904;2023-02-18T08:58:32;0.70;;;0.60;;
16254;SDS011;8235;52.198;9.904;2023-02-18T09:01:01;1.23;;;0.63;;
16254;SDS011;8235;52.198;9.904;2023-02-18T09:03:30;0.53;;;0.43;;
16254;SDS011;8235;52.198;9.904;2023-02-18T09:05:57;0.50;;;0.50;;
16254;SDS011;8235;52.198;9.904;2023-02-18T09:08:24;0.33;;;0.33;;
16254;SDS011;8235;52.198;9.904;2023-02-18T09:10:53;0.60;;;0.50;;
16254;SDS011;8235;52.198;9.904;2023-02-18T09:13:23;0.50;;;0.40;;
16254;SDS011;8235;52.198;9.904;2023-02-18T09:15:56;0.40;;;0.40;;
16254;SDS011;8235;52.198;9.904;2023-02-18T09:18:24;0.40;;;0.40;;
16254;SDS011;8235;52.198;9.904;2023-02-18T09:20:54;0.57;;;0.50;;
16254;SDS011;8235;52.198;9.904;2023-02-18T09:23:22;0.40;;;0.40;;
16254;SDS011;8235;52.198;9.904;2023-02-18T09:25:49;0.30;;;0.30;;
16254;SDS011;8235;52.198;9.904;2023-02-18T09:28:15;0.30;;;0.30;;
16254;SDS011;8235;52.198;9.904;2023-02-18T09:30:42;0.50;;;0.50;;
16254;SDS011;8235;52.198;9.904;2023-02-18T09:33:08;0.33;;;0.30;;
16254;SDS011;8235;52.198;9.904;2023-02-18T09:35:37;0.37;;;0.30;;
16254;SDS011;8235;52.198;9.904;2023-02-18T09:38:06;0.20;;;0.20;;
16254;SDS011;8235;52.198;9.904;2023-02-18T09:40:32;0.30;;;0.30;;
16254;SDS011;8235;52.198;9.904;2023-02-18T09:43:02;0.80;;;0.40;;
16254;SDS011;8235;52.198;9.904;2023-02-18T09:45:30;0.30;;;0.30;;
16254;SDS011;8235;52.198;9.904;2023-02-18T09:47:56;0.40;;;0.40;;
16254;SDS011;8235;52.198;9.904;2023-02-18T09:50:25;0.87;;;0.70;;
16254;SDS011;8235;52.198;9.904;2023-02-18T09:52:54;1.27;;;1.17;;
16254;SDS011;8235;52.198;9.904;2023-02-18T09:55:26;1.67;;;0.80;;
16254;SDS011;8235;52.198;9.904;2023-02-18T09:57:55;1.07;;;0.90;;
16254;SDS011;8235;52.198;9.904;2023-02-18T10:00:36;0.80;;;0.70;;
16254;SDS011;8235;52.198;9.904;2023-02-18T10:03:07;0.90;;;0.90;;
16254;SDS011;8235;52.198;9.904;2023-02-18T10:05:39;1.10;;;1.00;;
16254;SDS011;8235;52.198;9.904;2023-02-18T10:08:12;1.20;;;1.10;;
16254;SDS011;8235;52.198;9.904;2023-02-18T10:10:46;1.20;;;1.10;;
16254;SDS011;8235;52.198;9.904;2023-02-18T10:13:13;1.47;;;1.30;;
16254;SDS011;8235;52.198;9.904;2023-02-18T10:15:43;1.60;;;1.30;;
16254;SDS011;8235;52.198;9.904;2023-02-18T10:18:15;1.40;;;1.23;;
16254;SDS011;8235;52.198;9.904;2023-02-18T10:20:50;1.60;;;1.50;;
16254;SDS011;8235;52.198;9.904;2023-02-18T10:23:18;2.80;;;1.90;;
16254;SDS011;8235;52.198;9.904;2023-02-18T10:25:47;1.60;;;1.30;;
16254;SDS011;8235;52.198;9.904;2023-02-18T10:28:15;1.60;;;1.50;;
16254;SDS011;8235;52.198;9.904;2023-02-18T10:30:48;1.90;;;1.70;;
16254;SDS011;8235;52.198;9.904;2023-02-18T10:33:26;1.50;;;1.40;;
16254;SDS011;8235;52.198;9.904;2023-02-18T10:35:59;1.50;;;1.33;;
16254;SDS011;8235;52.198;9.904;2023-02-18T10:38:37;1.67;;;1.57;;
16254;SDS011;8235;52.198;9.904;2023-02-18T10:41:15;1.43;;;1.30;;
16254;SDS011;8235;52.198;9.904;2023-02-18T10:43:49;2.07;;;1.67;;
16254;SDS011;8235;52.198;9.904;2023-02-18T10:46:26;1.40;;;1.30;;
16254;SDS011;8235;52.198;9.904;2023-02-18T10:49:00;1.70;;;1.40;;
16254;SDS011;8235;52.198;9.904;2023-02-18T10:51:34;2.30;;;1.57;;
16254;SDS011;8235;52.198;9.904;2023-02-18T10:54:05;2.23;;;1.80;;
16254;SDS011;8235;52.198;9.904;2023-02-18T10:56:34;1.90;;;1.70;;
16254;SDS011;8235;52.198;9.904;2023-02-18T10:59:11;2.40;;;2.20;;
16254;SDS011;8235;52.198;9.904;2023-02-18T11:01:40;2.20;;;2.00;;
16254;SDS011;8235;52.198;9.904;2023-02-18T11:04:12;2.07;;;1.87;;
16254;SDS011;8235;52.198;9.904;2023-02-18T11:06:41;2.50;;;2.30;;
16254;SDS011;8235;52.198;9.904;2023-02-18T11:09:22;3.00;;;2.20;;
16254;SDS011;8235;52.198;9.904;2023-02-18T11:11:58;3.03;;;2.53;;
16254;SDS011;8235;52.198;9.904;2023-02-18T11:14:38;3.23;;;2.90;;
16254;SDS011;8235;52.198;9.904;2023-02-18T11:17:08;2.53;;;2.33;;
16254;SDS011;8235;52.198;9.904;2023-02-18T11:19:41;3.43;;;2.50;;
16254;SDS011;8235;52.198;9.904;2023-02-18T11:22:12;3.67;;;2.73;;
16254;SDS011;8235;52.198;9.904;2023-02-18T11:24:41;2.27;;;2.07;;
16254;SDS011;8235;52.198;9.904;2023-02-18T11:27:16;2.70;;;2.30;;
16254;SDS011;8235;52.198;9.904;2023-02-18T11:29:49;2.30;;;2.00;;
16254;SDS011;8235;52.198;9.904;2023-02-18T11:32:17;3.67;;;3.37;;
16254;SDS011;8235;52.198;9.904;2023-02-18T11:34:44;3.30;;;3.00;;
16254;SDS011;8235;52.198;9.904;2023-02-18T11:37:15;3.07;;;2.83;;
16254;SDS011;8235;52.198;9.904;2023-02-18T11:39:44;2.80;;;2.50;;
16254;SDS011;8235;52.198;9.904;2023-02-18T11:42:15;2.87;;;2.20;;
16254;SDS011;8235;52.198;9.904;2023-02-18T11:44:47;3.73;;;3.10;;
16254;SDS011;8235;52.198;9.904;2023-02-18T11:47:20;5.27;;;4.77;;
16254;SDS011;8235;52.198;9.904;2023-02-18T11:50:00;2.53;;;2.33;;
16254;SDS011;8235;52.198;9.904;2023-02-18T11:52:42;2.80;;;2.60;;
16254;SDS011;8235;52.198;9.904;2023-02-18T11:55:15;3.27;;;2.03;;
16254;SDS011;8235;52.198;9.904;2023-02-18T11:57:46;2.33;;;2.13;;
16254;SDS011;8235;52.198;9.904;2023-02-18T12:00:17;2.40;;;2.20;;
16254;SDS011;8235;52.198;9.904;2023-02-18T12:02:47;2.37;;;2.13;;
16254;SDS011;8235;52.198;9.904;2023-02-18T12:05:15;2.23;;;2.03;;
16254;SDS011;8235;52.198;9.904;2023-02-18T12:07:46;4.23;;;2.77;;
16254;SDS011;8235;52.198;9.904;2023-02-18T12:10:18;2.60;;;1.97;;
16254;SDS011;8235;52.198;9.904;2023-02-18T12:12:55;2.33;;;2.13;;
16254;SDS011;8235;52.198;9.904;2023-02-18T12:15:29;4.93;;;4.53;;
16254;SDS011;8235;52.198;9.904;2023-02-18T12:18:09;2.60;;;2.40;;
16254;SDS011;8235;52.198;9.904;2023-02-18T12:20:54;2.40;;;2.20;;
16254;SDS011;8235;52.198;9.904;2023-02-18T12:23:30;2.70;;;2.50;;
16254;SDS011;8235;52.198;9.904;2023-02-18T12:26:04;1.77;;;1.67;;
16254;SDS011;8235;52.198;9.904;2023-02-18T12:28:47;1.60;;;1.50;;
16254;SDS011;8235;52.198;9.904;2023-02-18T12:31:39;2.50;;;1.60;;
16254;SDS011;8235;52.198;9.904;2023-02-18T12:34:31;2.17;;;1.97;;
16254;SDS011;8235;52.198;9.904;2023-02-18T12:37:12;1.37;;;1.10;;
16254;SDS011;8235;52.198;9.904;2023-02-18T12:39:54;1.40;;;1.30;;
16254;SDS011;8235;52.198;9.904;2023-02-18T12:42:36;1.40;;;1.10;;
16254;SDS011;8235;52.198;9.904;2023-02-18T12:45:23;1.63;;;1.33;;
16254;SDS011;8235;52.198;9.904;2023-02-18T12:48:24;1.43;;;1.33;;
16254;SDS011;8235;52.198;9.904;2023-02-18T12:51:05;1.83;;;1.30;;
16254;SDS011;8235;52.198;9.904;2023-02-18T12:53:48;2.10;;;1.00;;
16254;SDS011;8235;52.198;9.904;2023-02-18T12:59:32;1.20;;;0.87;;
16254;SDS011;8235;52.198;9.904;2023-02-18T13:02:26;1.57;;;1.00;;
16254;SDS011;8235;52.198;9.904;2023-02-18T13:05:16;1.70;;;1.13;;
16254;SDS011;8235;52.198;9.904;2023-02-18T13:07:55;1.57;;;1.40;;
16254;SDS011;8235;52.198;9.904;2023-02-18T13:13:27;1.53;;;1.20;;
16254;SDS011;8235;52.198;9.904;2023-02-18T13:15:59;1.23;;;0.83;;
16254;SDS011;8235;52.198;9.904;2023-02-18T13:18:30;1.50;;;0.90;;
16254;SDS011;8235;52.198;9.904;2023-02-18T13:21:02;1.27;;;1.00;;
16254;SDS011;8235;52.198;9.904;2023-02-18T13:23:31;0.80;;;0.60;;
16254;SDS011;8235;52.198;9.904;2023-02-18T13:26:02;0.90;;;0.70;;
16254;SDS011;8235;52.198;9.904;2023-02-18T13:28:34;1.43;;;0.90;;
16254;SDS011;8235;52.198;9.904;2023-02-18T13:34:03;0.70;;;0.60;;
16254;SDS011;8235;52.198;9.904;2023-02-18T13:36:39;4.03;;;0.83;;
16254;SDS011;8235;52.198;9.904;2023-02-18T13:39:16;3.00;;;1.80;;
16254;SDS011;8235;52.198;9.904;2023-02-18T13:41:46;1.70;;;1.20;;
16254;SDS011;8235;52.198;9.904;2023-02-18T13:47:37;1.47;;;1.33;;
16254;SDS011;8235;52.198;9.904;2023-02-18T13:50:22;1.00;;;0.97;;
16254;SDS011;8235;52.198;9.904;2023-02-18T13:52:58;1.10;;;0.90;;
16254;SDS011;8235;52.198;9.904;2023-02-18T13:55:38;1.50;;;1.20;;
16254;SDS011;8235;52.198;9.904;2023-02-18T13:58:10;1.50;;;1.20;;
16254;SDS011;8235;52.198;9.904;2023-02-18T14:00:41;1.10;;;0.90;;
16254;SDS011;8235;52.198;9.904;2023-02-18T14:03:30;1.83;;;1.30;;
16254;SDS011;8235;52.198;9.904;2023-02-18T14:06:03;1.90;;;1.80;;
16254;SDS011;8235;52.198;9.904;2023-02-18T14:08:39;1.50;;;1.40;;
16254;SDS011;8235;52.198;9.904;2023-02-18T14:14:14;1.40;;;1.30;;
16254;SDS011;8235;52.198;9.904;2023-02-18T14:23:42;2.83;;;2.30;;
16254;SDS011;8235;52.198;9.904;2023-02-18T14:26:04;4.43;;;1.93;;
16254;SDS011;8235;52.198;9.904;2023-02-18T14:28:35;4.80;;;3.67;;
16254;SDS011;8235;52.198;9.904;2023-02-18T14:31:16;0.90;;;0.90;;
16254;SDS011;8235;52.198;9.904;2023-02-18T14:33:51;1.20;;;1.10;;
16254;SDS011;8235;52.198;9.904;2023-02-18T14:36:34;2.40;;;2.07;;
16254;SDS011;8235;52.198;9.904;2023-02-18T14:39:08;1.47;;;1.37;;
16254;SDS011;8235;52.198;9.904;2023-02-18T14:41:47;2.30;;;1.80;;
16254;SDS011;8235;52.198;9.904;2023-02-18T14:44:31;2.57;;;1.57;;
16254;SDS011;8235;52.198;9.904;2023-02-18T14:47:16;1.87;;;1.23;;
16254;SDS011;8235;52.198;9.904;2023-02-18T14:49:54;1.33;;;0.90;;
16254;SDS011;8235;52.198;9.904;2023-02-18T14:52:26;1.10;;;1.00;;
16254;SDS011;8235;52.198;9.904;2023-02-18T14:54:59;2.40;;;2.20;;
16254;SDS011;8235;52.198;9.904;2023-02-18T14:57:29;1.03;;;0.90;;
16254;SDS011;8235;52.198;9.904;2023-02-18T15:00:00;1.03;;;0.93;;
16254;SDS011;8235;52.198;9.904;2023-02-18T15:02:27;1.00;;;0.87;;
16254;SDS011;8235;52.198;9.904;2023-02-18T15:05:06;1.10;;;1.00;;
16254;SDS011;8235;52.198;9.904;2023-02-18T15:07:38;1.40;;;1.30;;
16254;SDS011;8235;52.198;9.904;2023-02-18T15:10:10;2.10;;;1.70;;
16254;SDS011;8235;52.198;9.904;2023-02-18T15:12:39;1.33;;;1.00;;
16254;SDS011;8235;52.198;9.904;2023-02-18T15:15:06;2.50;;;1.30;;
16254;SDS011;8235;52.198;9.904;2023-02-18T15:17:33;1.50;;;1.20;;
16254;SDS011;8235;52.198;9.904;2023-02-18T15:20:02;2.60;;;2.17;;
16254;SDS011;8235;52.198;9.904;2023-02-18T15:22:31;3.00;;;2.27;;
16254;SDS011;8235;52.198;9.904;2023-02-18T15:25:00;3.60;;;2.00;;
16254;SDS011;8235;52.198;9.904;2023-02-18T15:27:29;2.67;;;1.43;;
16254;SDS011;8235;52.198;9.904;2023-02-18T15:30:03;2.00;;;1.70;;
16254;SDS011;8235;52.198;9.904;2023-02-18T15:32:43;2.37;;;1.60;;
16254;SDS011;8235;52.198;9.904;2023-02-18T15:35:14;2.90;;;1.40;;
16254;SDS011;8235;52.198;9.904;2023-02-18T15:37:43;2.13;;;1.50;;
16254;SDS011;8235;52.198;9.904;2023-02-18T15:40:11;2.77;;;1.70;;
16254;SDS011;8235;52.198;9.904;2023-02-18T15:42:40;2.63;;;1.50;;
16254;SDS011;8235;52.198;9.904;2023-02-18T15:45:13;2.90;;;1.93;;